Time;durP1;ratioP1;P1;durP2;ratioP2;P2;SDS_P1;SDS_P2;PMS_P1;PMS_P2;Temp;Humidity;BMP_temperature;BMP_pressure;BME280_temperature;BME280_humidity;BME280_pressure;Samples;Min_cycle;Max_cycle;Signal;HPM_P1;HPM_P2
2020/12/30 00:01:10;;;;;;;5.57;3.60;;;4.80;99.90;;;4.71;100.00;99495.25;6200459;23;20008;-87
2020/12/30 00:03:39;;;;;;;6.33;3.60;;;4.80;99.90;;;4.66;100.00;99484.19;6204076;23;20091;-87
2020/12/30 00:06:40;;;;;;;5.45;4.03;;;4.70;99.90;;;4.64;100.00;99482.72;6202010;23;20016;-87
2020/12/30 00:09:06;;;;;;;5.57;3.08;;;4.70;99.90;;;4.58;100.00;99489.75;6201507;23;20008;-88
2020/12/30 00:11:31;;;;;;;5.78;3.10;;;4.60;99.90;;;4.51;100.00;99488.88;6199023;23;20455;-87
2020/12/30 00:14:03;;;;;;;7.10;3.90;;;4.60;99.90;;;4.49;100.00;99484.69;6200318;23;20008;-88
2020/12/30 00:16:29;;;;;;;4.70;3.53;;;4.50;99.90;;;4.47;100.00;99487.59;6202437;23;20004;-89
2020/12/30 00:18:55;;;;;;;5.93;3.13;;;4.60;99.90;;;4.52;100.00;99498.59;6201525;23;20059;-87
2020/12/30 00:21:21;;;;;;;7.45;3.13;;;4.50;99.90;;;4.61;100.00;99494.75;6201375;23;20012;-87
2020/12/30 00:23:47;;;;;;;7.95;2.55;;;4.60;99.90;;;4.62;100.00;99496.41;6176151;23;20015;-87
2020/12/30 00:26:19;;;;;;;4.82;3.30;;;4.70;99.90;;;4.50;100.00;99503.38;6198360;23;20145;-87
2020/12/30 00:28:45;;;;;;;5.68;3.05;;;4.70;99.90;;;4.53;100.00;99512.91;6168936;23;20080;-87
2020/12/30 00:31:14;;;;;;;4.75;2.85;;;5.10;99.90;;;4.59;100.00;99512.97;6194073;23;20036;-86
2020/12/30 00:33:40;;;;;;;8.75;4.88;;;4.70;99.90;;;4.74;100.00;99511.00;6193684;23;20499;-87
2020/12/30 00:36:07;;;;;;;4.93;2.78;;;4.70;99.90;;;4.67;100.00;99510.13;6218245;23;20043;-88
2020/12/30 00:38:34;;;;;;;4.43;3.10;;;4.70;99.90;;;4.75;100.00;99520.75;6193375;23;20444;-87
2020/12/30 00:41:00;;;;;;;5.63;3.22;;;4.60;99.90;;;4.66;100.00;99507.63;6184881;23;20008;-86
2020/12/30 00:43:26;;;;;;;7.80;3.25;;;5.10;99.90;;;4.72;100.00;99505.00;6163685;23;20004;-87
2020/12/30 00:45:51;;;;;;;5.18;3.35;;;4.60;99.90;;;4.72;100.00;99509.56;6188164;23;20005;-89
2020/12/30 00:48:17;;;;;;;4.47;2.53;;;4.70;99.90;;;5.04;100.00;99505.41;6189967;23;20012;-87
2020/12/30 00:50:43;;;;;;;5.38;3.20;;;4.80;99.90;;;5.09;100.00;99497.56;6164083;23;20020;-86
2020/12/30 00:53:09;;;;;;;7.03;3.90;;;4.90;99.90;;;5.10;100.00;99499.22;6186682;23;20017;-86
2020/12/30 00:55:34;;;;;;;9.25;3.78;;;4.90;99.90;;;5.10;100.00;99510.84;6171407;23;20399;-87
2020/12/30 00:58:00;;;;;;;6.32;3.22;;;5.30;99.90;;;5.06;100.00;99514.16;6142863;23;20044;-85
2020/12/30 01:00:26;;;;;;;6.35;3.55;;;4.90;99.90;;;4.94;100.00;99518.41;6167499;23;20004;-88
2020/12/30 01:02:54;;;;;;;5.15;2.85;;;5.30;99.90;;;4.94;100.00;99521.94;6143098;23;20394;-87
2020/12/30 01:05:20;;;;;;;4.60;2.75;;;4.90;99.90;;;4.92;100.00;99529.41;6144845;23;20023;-88
2020/12/30 01:07:46;;;;;;;4.78;2.60;;;4.90;99.90;;;4.92;100.00;99526.69;6194214;23;20036;-88
2020/12/30 01:10:12;;;;;;;3.85;2.15;;;5.60;99.90;;;4.87;100.00;99539.09;6168856;23;20461;-88
2020/12/30 01:12:38;;;;;;;1.70;1.30;;;4.90;99.90;;;4.72;100.00;99545.44;6193248;23;20008;-88
2020/12/30 01:15:05;;;;;;;1.90;1.15;;;5.10;99.90;;;4.74;100.00;99554.13;6167880;23;20009;-88
2020/12/30 01:17:31;;;;;;;1.55;0.90;;;4.90;99.90;;;4.87;100.00;99557.97;6167424;23;20095;-87
2020/12/30 01:19:57;;;;;;;1.40;0.52;;;4.80;99.90;;;4.78;100.00;99564.53;6167179;23;20014;-87
2020/12/30 01:22:23;;;;;;;1.05;0.50;;;4.90;99.90;;;4.78;100.00;99570.75;6144358;23;20012;-87
2020/12/30 01:24:49;;;;;;;2.75;0.70;;;4.70;99.90;;;4.78;100.00;99576.16;6168431;23;20009;-87
2020/12/30 01:27:17;;;;;;;0.30;0.20;;;5.20;99.90;;;4.66;100.00;99570.44;6138920;23;20454;-87
2020/12/30 01:29:43;;;;;;;2.53;0.60;;;4.70;99.90;;;4.57;100.00;99568.06;6163589;23;20092;-87
2020/12/30 01:32:09;;;;;;;0.95;0.45;;;4.70;99.90;;;4.50;100.00;99572.59;6138277;23;20009;-87
2020/12/30 01:34:35;;;;;;;0.82;0.40;;;4.70;99.90;;;4.43;100.00;99566.28;6138969;23;20035;-88
2020/12/30 01:37:01;;;;;;;0.52;0.30;;;4.60;99.90;;;4.54;100.00;99566.59;6110452;23;20009;-88
2020/12/30 01:39:27;;;;;;;1.42;0.35;;;4.60;99.90;;;4.78;100.00;99562.66;6158288;23;20104;-92
2020/12/30 01:41:53;;;;;;;0.28;0.28;;;4.60;99.90;;;4.64;100.00;99559.03;6143281;23;20016;-92
2020/12/30 01:44:18;;;;;;;0.60;0.25;;;5.00;99.90;;;4.65;100.00;99573.31;6145197;23;20489;-92
2020/12/30 01:46:53;;;;;;;1.75;0.50;;;4.70;99.90;;;4.59;100.00;99572.25;6171102;23;20438;-91
2020/12/30 01:49:25;;;;;;;1.20;0.30;;;4.70;99.90;;;4.61;100.00;99578.28;6171752;23;20020;-91
2020/12/30 01:51:53;;;;;;;1.55;0.50;;;4.80;99.90;;;4.54;100.00;99573.84;6143775;23;20013;-92
2020/12/30 01:54:19;;;;;;;1.00;0.50;;;5.00;99.90;;;4.56;100.00;99585.28;6170545;23;20009;-92
2020/12/30 01:56:47;;;;;;;5.70;0.80;;;4.90;99.90;;;4.57;100.00;99574.31;6169146;23;20331;-91
2020/12/30 01:59:19;;;;;;;0.85;0.30;;;4.90;99.90;;;4.73;100.00;99568.66;6115564;23;20017;-91
2020/12/30 02:02:00;;;;;;;2.50;0.50;;;5.00;99.90;;;4.63;100.00;99575.38;6192356;23;20009;-92
2020/12/30 02:04:44;;;;;;;1.33;0.50;;;5.00;99.90;;;4.52;100.00;99582.13;6169415;23;20035;-92
2020/12/30 02:07:11;;;;;;;1.23;0.80;;;5.00;99.90;;;4.50;100.00;99578.81;6169151;23;20453;-92
2020/12/30 02:09:40;;;;;;;0.85;0.50;;;4.90;99.90;;;4.53;100.00;99581.09;6144712;23;20032;-91
2020/12/30 02:12:07;;;;;;;4.50;1.75;;;4.90;99.90;;;4.55;100.00;99581.75;6192972;23;20071;-90
2020/12/30 02:14:33;;;;;;;1.55;0.60;;;4.90;99.90;;;4.56;100.00;99583.41;6142246;23;20005;-91
2020/12/30 02:16:59;;;;;;;0.85;0.70;;;4.90;99.90;;;4.57;100.00;99587.78;6136890;23;20016;-91
2020/12/30 02:19:25;;;;;;;0.95;0.40;;;5.70;99.90;;;4.55;100.00;99581.75;6161883;23;20009;-90
2020/12/30 02:22:17;;;;;;;1.23;0.50;;;5.20;99.90;;;4.55;100.00;99589.81;6117620;23;20390;-91
2020/12/30 02:24:45;;;;;;;5.00;0.93;;;4.90;99.90;;;4.54;100.00;99596.25;6168086;23;20035;-92
2020/12/30 02:27:11;;;;;;;0.63;0.40;;;5.10;99.90;;;4.64;100.00;99591.34;6177262;23;20036;-87
2020/12/30 02:29:37;;;;;;;3.80;1.13;;;5.00;99.90;;;4.71;100.00;99597.66;6174475;23;20039;-87
2020/12/30 02:32:03;;;;;;;2.53;0.65;;;5.00;99.90;;;4.66;100.00;99597.41;6175426;23;20014;-87
2020/12/30 02:34:29;;;;;;;2.38;0.80;;;5.20;99.90;;;4.80;100.00;99611.00;6198423;23;20072;-87
2020/12/30 02:36:56;;;;;;;1.10;0.68;;;5.10;99.90;;;4.77;100.00;99611.38;6174067;23;20008;-88
2020/12/30 02:39:22;;;;;;;1.38;0.50;;;5.10;99.90;;;4.74;100.00;99615.28;6198494;23;20032;-87
2020/12/30 02:41:49;;;;;;;1.90;0.77;;;5.10;99.90;;;4.73;100.00;99622.56;6173473;23;20016;-87
2020/12/30 02:44:15;;;;;;;2.83;0.93;;;5.50;99.90;;;4.77;100.00;99616.75;6197225;23;20016;-88
2020/12/30 02:46:42;;;;;;;3.13;0.60;;;5.20;99.90;;;4.90;100.00;99625.81;6197675;23;20012;-87
2020/12/30 02:49:08;;;;;;;3.25;0.70;;;5.50;99.90;;;4.90;100.00;99619.59;6197573;23;20012;-87
2020/12/30 02:51:34;;;;;;;1.75;0.77;;;5.20;99.90;;;4.92;100.00;99612.16;6196570;23;20004;-86
2020/12/30 02:54:00;;;;;;;4.45;0.90;;;5.20;99.90;;;5.00;100.00;99617.38;6196572;23;20588;-89
2020/12/30 02:56:26;;;;;;;1.88;0.77;;;5.20;99.90;;;4.98;100.00;99614.06;6196729;23;20035;-86
2020/12/30 02:58:52;;;;;;;4.43;1.08;;;5.30;99.90;;;4.98;100.00;99616.75;6197371;23;20008;-87
2020/12/30 03:01:19;;;;;;;1.10;0.65;;;5.90;99.90;;;5.12;100.00;99610.44;6197352;23;20012;-86
2020/12/30 03:03:45;;;;;;;2.75;0.80;;;5.50;99.90;;;5.10;100.00;99612.50;6173342;23;20031;-87
2020/12/30 03:06:11;;;;;;;2.10;0.68;;;5.20;99.90;;;4.97;100.00;99612.38;6197087;23;20054;-88
2020/12/30 03:08:37;;;;;;;1.92;0.70;;;5.20;99.90;;;4.93;100.00;99616.50;6197505;23;20015;-87
2020/12/30 03:11:07;;;;;;;4.47;0.60;;;6.00;99.90;;;5.00;100.00;99612.84;6197272;23;20059;-87
2020/12/30 03:13:34;;;;;;;2.83;0.70;;;5.30;99.90;;;5.09;100.00;99605.44;6173239;23;20317;-87
2020/12/30 03:16:00;;;;;;;0.80;0.73;;;5.40;99.90;;;5.10;100.00;99617.88;6197075;23;20061;-88
2020/12/30 03:18:26;;;;;;;0.85;0.80;;;4.90;99.90;;;5.07;100.00;99618.31;6173494;23;20011;-87
2020/12/30 03:20:54;;;;;;;2.22;1.00;;;5.30;99.90;;;4.92;100.00;99614.84;6171965;23;20008;-88
2020/12/30 03:23:20;;;;;;;1.05;0.57;;;5.30;99.90;;;5.05;100.00;99614.97;6172310;23;20012;-87
2020/12/30 03:25:46;;;;;;;4.10;0.93;;;5.30;99.90;;;5.08;100.00;99619.94;6171789;23;20026;-88
2020/12/30 03:28:12;;;;;;;1.88;0.25;;;5.20;99.90;;;5.23;100.00;99620.69;6198545;23;20066;-88
2020/12/30 03:30:38;;;;;;;0.80;0.30;;;5.20;99.90;;;5.20;100.00;99623.78;6197676;23;20008;-87
2020/12/30 03:33:04;;;;;;;0.85;0.40;;;5.10;99.90;;;5.18;100.00;99620.47;6172459;23;20012;-87
2020/12/30 03:35:33;;;;;;;1.02;0.57;;;5.10;99.90;;;5.27;100.00;99621.13;6197053;23;20011;-87
2020/12/30 03:37:58;;;;;;;2.17;0.30;;;5.10;99.90;;;5.22;100.00;99627.13;6196970;23;20004;-88
2020/12/30 03:40:27;;;;;;;1.17;0.70;;;5.20;99.90;;;5.17;100.00;99624.19;6172367;23;20091;-87
2020/12/30 03:42:53;;;;;;;0.28;0.25;;;5.50;99.90;;;5.01;100.00;99613.66;6197040;23;20011;-87
2020/12/30 03:45:19;;;;;;;2.58;0.35;;;5.60;99.90;;;5.01;100.00;99603.72;6197753;23;20498;-87
2020/12/30 03:47:45;;;;;;;2.33;0.20;;;5.20;99.90;;;5.05;100.00;99609.56;6197565;23;20337;-89
2020/12/30 03:50:11;;;;;;;1.85;0.22;;;5.20;99.90;;;5.07;100.00;99612.91;6173089;23;20436;-88
2020/12/30 03:52:37;;;;;;;1.55;0.30;;;5.30;99.90;;;5.03;100.00;99608.91;6197733;23;20325;-87
2020/12/30 03:55:03;;;;;;;0.52;0.22;;;5.30;99.90;;;4.98;100.00;99614.88;6196775;23;20345;-87
2020/12/30 03:57:29;;;;;;;1.13;0.30;;;5.30;99.90;;;4.91;100.00;99607.78;6197534;23;20008;-87
2020/12/30 03:59:55;;;;;;;2.90;1.02;;;5.70;99.90;;;4.82;100.00;99609.78;6198978;23;20012;-88
2020/12/30 04:02:21;;;;;;;1.15;0.40;;;5.10;99.90;;;4.74;100.00;99607.19;6200748;23;20016;-87
2020/12/30 04:04:47;;;;;;;3.33;0.40;;;5.90;99.90;;;4.74;100.00;99608.03;6200088;23;20023;-87
2020/12/30 04:07:13;;;;;;;5.40;0.77;;;5.00;99.90;;;4.70;100.00;99606.78;6175312;23;20035;-87
2020/12/30 04:09:39;;;;;;;2.28;0.40;;;5.00;99.90;;;4.76;100.00;99607.84;6198938;23;20024;-89
2020/12/30 04:12:05;;;;;;;3.92;0.40;;;5.30;99.90;;;4.90;100.00;99611.50;6198463;23;20012;-88
2020/12/30 04:14:33;;;;;;;0.90;0.50;;;5.30;99.90;;;4.78;100.00;99613.03;6198731;23;20077;-87
2020/12/30 04:16:59;;;;;;;3.80;0.50;;;5.00;99.90;;;4.67;100.00;99617.94;6197630;23;20005;-88
2020/12/30 04:19:25;;;;;;;0.80;0.22;;;5.00;99.90;;;4.72;100.00;99614.66;6198626;23;20012;-88
2020/12/30 04:21:51;;;;;;;0.65;0.30;;;4.90;99.90;;;4.73;100.00;99611.78;6203729;23;20445;-87
2020/12/30 04:24:18;;;;;;;3.63;0.70;;;4.90;99.90;;;4.67;100.00;99611.69;6149415;23;20526;-87
2020/12/30 04:26:44;;;;;;;0.43;0.32;;;5.00;99.90;;;4.64;100.00;99618.31;6199468;23;20103;-88
2020/12/30 04:29:10;;;;;;;0.98;0.30;;;5.30;99.90;;;4.60;100.00;99614.34;6199341;23;20031;-88
2020/12/30 04:31:37;;;;;;;1.52;0.60;;;5.40;99.90;;;4.63;100.00;99621.19;6200262;23;20020;-88
2020/12/30 04:34:05;;;;;;;1.17;0.43;;;4.80;99.90;;;4.62;100.00;99617.69;6176412;23;20039;-87
2020/12/30 04:36:31;;;;;;;1.55;0.50;;;4.80;99.90;;;4.63;100.00;99621.19;6205435;23;20067;-87
2020/12/30 04:38:57;;;;;;;5.47;0.68;;;5.60;99.90;;;4.56;100.00;99626.53;6198868;22;20056;-88
2020/12/30 04:41:32;;;;;;;2.00;0.50;;;4.80;99.90;;;4.68;100.00;99624.16;6223217;22;20004;-88
2020/12/30 04:44:04;;;;;;;5.10;0.63;;;4.80;99.90;;;4.73;100.00;99630.66;6211970;23;20016;-87
2020/12/30 04:46:30;;;;;;;2.15;0.73;;;4.80;99.90;;;4.81;100.00;99626.16;6201677;23;20011;-88
2020/12/30 04:48:58;;;;;;;2.13;0.40;;;4.90;99.90;;;4.74;100.00;99629.59;6176579;23;20012;-87
2020/12/30 04:51:26;;;;;;;3.22;0.50;;;4.90;99.90;;;4.73;100.00;99636.03;6202699;23;20004;-90
2020/12/30 04:54:00;;;;;;;3.45;0.95;;;4.80;99.90;;;4.57;100.00;99633.59;6202590;23;20020;-89
2020/12/30 04:56:41;;;;;;;2.15;0.57;;;4.80;99.90;;;4.66;100.00;99643.22;6201690;23;20107;-90
2020/12/30 04:59:13;;;;;;;2.92;0.65;;;4.70;99.90;;;4.69;100.00;99628.53;6230632;23;20039;-91
2020/12/30 05:02:01;;;;;;;2.25;0.45;;;4.90;99.90;;;4.60;100.00;99641.28;6205187;23;20019;-90
2020/12/30 05:04:33;;;;;;;1.15;0.60;;;4.80;99.90;;;4.70;100.00;99632.88;6205180;23;20012;-91
2020/12/30 05:07:11;;;;;;;3.67;0.45;;;4.80;99.90;;;4.68;100.00;99641.16;6178622;23;20012;-91
2020/12/30 05:09:40;;;;;;;1.52;0.52;;;4.80;99.90;;;4.54;100.00;99643.91;6204571;23;20086;-90
2020/12/30 05:12:18;;;;;;;3.10;0.70;;;4.70;99.90;;;4.45;100.00;99639.66;6228247;23;20012;-90
2020/12/30 05:14:45;;;;;;;2.75;0.50;;;4.70;99.90;;;4.23;100.00;99646.88;6203521;23;20004;-91
2020/12/30 05:17:15;;;;;;;5.78;0.60;;;4.60;99.90;;;4.25;100.00;99644.84;6176543;23;20011;-88
2020/12/30 05:19:43;;;;;;;2.92;1.20;;;5.40;99.90;;;4.24;100.00;99651.25;6174463;23;20027;-87
2020/12/30 05:22:18;;;;;;;2.47;0.68;;;4.80;99.90;;;4.13;100.00;99651.72;6198861;23;20004;-87
2020/12/30 05:24:46;;;;;;;2.78;0.70;;;4.60;99.90;;;4.04;100.00;99651.00;6174882;23;20008;-87
2020/12/30 05:27:14;;;;;;;1.90;0.50;;;4.40;99.90;;;4.01;100.00;99646.81;6199785;23;20016;-87
2020/12/30 05:29:49;;;;;;;2.50;0.70;;;4.30;99.90;;;3.92;100.00;99650.66;6199972;23;20498;-89
2020/12/30 05:32:16;;;;;;;5.43;0.60;;;4.30;99.90;;;4.04;100.00;99642.09;6201448;23;20036;-88
2020/12/30 05:34:42;;;;;;;1.67;0.40;;;4.20;99.90;;;3.87;100.00;99653.06;6199237;23;20005;-88
2020/12/30 05:37:13;;;;;;;0.50;0.43;;;4.20;99.90;;;3.83;100.00;99656.31;6199558;23;20004;-88
2020/12/30 05:39:39;;;;;;;1.95;0.55;;;4.10;99.90;;;3.80;100.00;99665.59;6200498;23;20004;-88
2020/12/30 05:42:24;;;;;;;1.90;0.50;;;4.10;99.90;;;3.78;100.00;99670.31;6202722;23;20016;-91
2020/12/30 05:44:52;;;;;;;3.08;0.60;;;4.10;99.90;;;3.82;100.00;99671.63;6204676;23;20004;-91
2020/12/30 05:47:26;;;;;;;2.38;0.47;;;4.10;99.90;;;3.82;100.00;99671.63;6204369;23;20008;-91
2020/12/30 05:49:59;;;;;;;2.65;0.70;;;4.10;99.90;;;4.00;100.00;99674.78;6207631;23;20054;-90
2020/12/30 05:52:28;;;;;;;2.15;0.50;;;4.20;99.90;;;4.12;100.00;99674.28;6183610;23;20016;-90
2020/12/30 05:55:02;;;;;;;1.65;0.43;;;4.30;99.90;;;4.09;100.00;99683.56;6180875;23;20004;-91
2020/12/30 05:57:29;;;;;;;2.95;0.80;;;4.30;99.90;;;4.15;100.00;99692.78;6205137;23;20054;-91
2020/12/30 06:00:13;;;;;;;0.88;0.77;;;4.40;99.90;;;4.24;100.00;99684.41;6203122;23;20487;-90
2020/12/30 06:02:47;;;;;;;0.88;0.50;;;4.80;99.90;;;4.38;100.00;99688.09;6205938;23;20060;-90
2020/12/30 06:05:20;;;;;;;2.08;0.70;;;4.70;99.90;;;4.42;100.00;99689.38;6205459;23;20004;-90
2020/12/30 06:07:53;;;;;;;0.50;0.38;;;4.70;99.90;;;4.62;100.00;99692.31;6205473;23;20096;-91
2020/12/30 06:10:25;;;;;;;2.38;0.50;;;4.70;99.90;;;4.64;100.00;99693.78;6205581;23;20058;-91
2020/12/30 06:13:09;;;;;;;1.55;0.50;;;4.70;99.90;;;4.66;100.00;99694.41;6206881;23;20008;-89
2020/12/30 06:15:35;;;;;;;0.45;0.40;;;4.70;99.90;;;4.60;100.00;99695.19;6201105;23;20012;-87
2020/12/30 06:18:07;;;;;;;2.20;0.50;;;4.60;99.90;;;4.55;100.00;99700.31;6200202;23;20062;-88
2020/12/30 06:20:39;;;;;;;1.80;0.75;;;4.60;99.90;;;4.64;100.00;99701.84;6199136;23;20058;-88
2020/12/30 06:23:14;;;;;;;4.65;1.15;;;4.60;99.90;;;4.66;100.00;99707.91;6200089;23;20087;-88
2020/12/30 06:25:48;;;;;;;1.30;0.47;;;4.50;99.90;;;4.66;100.00;99707.06;6201840;23;20460;-91
2020/12/30 06:28:21;;;;;;;0.30;0.30;;;4.50;99.90;;;4.64;100.00;99699.16;6176994;23;20012;-91
2020/12/30 06:30:53;;;;;;;5.65;0.52;;;4.70;99.90;;;4.55;100.00;99699.47;6228190;23;20012;-90
2020/12/30 06:33:28;;;;;;;6.82;1.35;;;4.40;99.90;;;4.36;100.00;99712.53;6211570;23;20008;-91
2020/12/30 06:35:56;;;;;;;1.17;0.60;;;4.40;99.90;;;4.33;100.00;99712.88;6235682;23;20042;-88
2020/12/30 06:38:22;;;;;;;4.60;1.00;;;4.30;99.90;;;4.43;100.00;99712.59;6180554;23;20012;-86
2020/12/30 06:40:57;;;;;;;1.65;0.60;;;4.30;99.90;;;4.38;100.00;99715.03;6235774;23;20093;-92
2020/12/30 06:43:47;;;;;;;3.55;0.73;;;4.30;99.90;;;4.37;100.00;99727.66;6220131;23;20004;-87
2020/12/30 06:46:33;;;;;;;;;;;;;;;;;;;;;
2020/12/30 06:49:12;;;;;;;2.90;1.00;;;4.30;99.90;;;4.34;100.00;99730.72;6267448;23;20008;-89
2020/12/30 06:51:43;;;;;;;2.28;1.30;;;4.30;99.90;;;4.13;100.00;99727.97;6205637;23;20008;-92
2020/12/30 06:54:08;;;;;;;2.00;1.38;;;4.60;99.90;;;4.00;100.00;99731.31;6211883;23;20072;-90
2020/12/30 06:56:47;;;;;;;1.88;1.50;;;4.10;99.90;;;3.97;100.00;99731.66;6205572;23;20009;-91
2020/12/30 06:59:27;;;;;;;5.05;1.67;;;4.00;99.90;;;3.83;100.00;99735.22;6183397;23;20016;-88
2020/12/30 07:02:17;;;;;;;4.38;1.67;;;4.00;99.90;;;3.95;100.00;99736.41;6200891;23;20004;-88
2020/12/30 07:05:00;;;;;;;7.50;2.22;;;4.00;99.90;;;4.04;100.00;99749.78;6181499;23;20023;-91
2020/12/30 07:07:28;;;;;;;4.20;2.20;;;4.00;99.90;;;3.97;100.00;99734.34;6208431;23;20016;-91
2020/12/30 07:09:56;;;;;;;3.72;2.50;;;4.00;99.90;;;4.09;100.00;99747.34;6206856;23;20091;-91
2020/12/30 07:12:38;;;;;;;5.07;2.63;;;4.00;99.90;;;4.03;100.00;99748.94;6202402;23;20000;-88
2020/12/30 07:15:09;;;;;;;6.15;2.30;;;3.90;99.90;;;3.96;100.00;99754.22;6180475;23;20019;-88
2020/12/30 07:17:40;;;;;;;7.85;3.50;;;4.20;99.90;;;3.75;100.00;99751.41;6195213;23;20008;-88
2020/12/30 07:20:24;;;;;;;4.85;3.33;;;4.00;99.90;;;3.63;100.00;99759.09;6198525;22;19995;-88
2020/12/30 07:22:50;;;;;;;3.60;3.25;;;3.90;99.90;;;3.59;100.00;99756.97;6217647;23;20051;-88
2020/12/30 07:25:17;;;;;;;6.07;4.05;;;3.90;99.90;;;3.54;100.00;99767.44;6210954;23;20004;-92
2020/12/30 07:27:44;;;;;;;5.88;3.55;;;3.80;99.90;;;3.38;100.00;99772.97;6210323;23;20034;-91
2020/12/30 07:30:10;;;;;;;5.15;3.55;;;4.60;99.90;;;3.40;100.00;99773.59;6185657;23;20008;-90
2020/12/30 07:32:36;;;;;;;8.48;4.05;;;3.70;99.90;;;3.58;100.00;99777.66;6208324;23;20000;-93
2020/12/30 07:35:06;;;;;;;5.60;4.30;;;4.20;99.90;;;3.63;100.00;99782.47;6208873;23;19988;-93
2020/12/30 07:37:33;;;;;;;6.05;4.15;;;4.10;99.90;;;3.64;100.00;99781.47;6207733;23;20004;-92
2020/12/30 07:39:59;;;;;;;7.18;4.10;;;3.90;99.90;;;3.54;100.00;99780.88;6207627;23;20086;-90
2020/12/30 07:42:27;;;;;;;4.32;3.85;;;3.90;99.90;;;3.42;100.00;99782.31;6206797;23;20008;-91
2020/12/30 07:44:55;;;;;;;5.18;4.05;;;4.20;99.90;;;3.39;100.00;99782.69;6209109;23;20392;-92
2020/12/30 07:47:27;;;;;;;6.68;4.43;;;4.50;99.90;;;3.37;100.00;99790.13;6209303;23;20040;-91
2020/12/30 07:50:01;;;;;;;6.72;4.78;;;3.80;99.90;;;3.54;100.00;99799.72;6211071;23;20023;-92
2020/12/30 07:52:27;;;;;;;5.47;4.15;;;4.10;99.90;;;3.57;100.00;99796.66;6208161;23;20058;-90
2020/12/30 07:54:55;;;;;;;7.50;4.88;;;4.10;99.90;;;3.73;100.00;99807.28;6208226;23;20016;-93
2020/12/30 07:57:22;;;;;;;6.47;4.10;;;3.70;99.90;;;3.69;100.00;99807.84;6208040;23;20019;-91
2020/12/30 07:59:51;;;;;;;10.68;6.07;;;3.80;99.90;;;3.82;100.00;99816.97;6207538;23;20063;-90
2020/12/30 08:02:24;;;;;;;7.95;6.00;;;3.90;99.90;;;3.77;100.00;99816.66;6205022;23;20099;-90
2020/12/30 08:05:01;;;;;;;8.18;5.93;;;3.90;99.90;;;3.87;100.00;99825.31;6209518;23;20004;-89
2020/12/30 08:07:29;;;;;;;8.50;5.43;;;4.30;99.90;;;3.93;100.00;99824.59;6210429;23;20073;-92
2020/12/30 08:09:55;;;;;;;5.78;4.25;;;4.10;99.90;;;3.87;100.00;99833.41;6184129;23;20019;-92
2020/12/30 08:12:26;;;;;;;9.85;4.45;;;4.70;99.90;;;4.26;100.00;99835.03;6183690;23;20091;-90
2020/12/30 08:15:00;;;;;;;5.20;4.35;;;4.00;99.90;;;4.33;100.00;99830.59;6232740;23;20394;-91
2020/12/30 08:17:34;;;;;;;7.18;4.38;;;4.20;99.90;;;4.07;100.00;99835.56;6233833;23;20008;-93
2020/12/30 08:20:05;;;;;;;10.68;3.70;;;4.40;99.90;;;4.07;100.00;99830.19;6209346;23;20000;-91
2020/12/30 08:22:32;;;;;;;15.65;3.40;;;4.40;99.90;;;4.12;100.00;99843.94;6207747;23;20056;-91
2020/12/30 08:25:21;;;;;;;13.63;2.40;;;4.40;99.90;;;4.12;100.00;99852.00;6211748;23;19996;-92
2020/12/30 08:27:48;;;;;;;4.65;2.85;;;4.50;99.90;;;4.13;100.00;99859.06;6204792;23;20012;-90
2020/12/30 08:30:16;;;;;;;3.80;2.08;;;4.50;99.90;;;4.17;100.00;99863.09;6210127;23;20012;-91
2020/12/30 08:33:00;;;;;;;6.55;2.58;;;5.10;99.90;;;4.24;100.00;99870.25;6205177;23;20012;-92
2020/12/30 08:35:36;;;;;;;4.60;2.75;;;4.60;99.90;;;4.36;100.00;99878.72;6204324;23;20009;-91
2020/12/30 08:38:15;;;;;;;4.38;2.55;;;4.70;99.90;;;4.53;100.00;99885.59;6206118;23;20080;-92
2020/12/30 08:40:43;;;;;;;5.25;3.72;;;4.70;99.90;;;4.79;100.00;99881.59;6207765;23;20001;-91
2020/12/30 08:43:19;;;;;;;4.85;2.47;;;4.70;99.90;;;4.99;100.00;99880.00;6208500;23;20035;-91
2020/12/30 08:46:08;;;;;;;6.07;3.80;;;4.80;99.90;;;4.97;100.00;99882.03;6203801;23;20019;-90
2020/12/30 08:48:45;;;;;;;4.10;2.78;;;4.80;99.90;;;5.06;100.00;99876.38;6205510;23;20005;-91
2020/12/30 08:51:24;;;;;;;6.32;3.53;;;4.90;99.90;;;4.93;100.00;99876.19;6180074;23;20068;-92
2020/12/30 08:53:56;;;;;;;5.22;2.58;;;5.40;99.90;;;4.87;100.00;99884.19;6207164;23;20059;-92
2020/12/30 08:56:23;;;;;;;4.82;2.20;;;5.00;99.90;;;4.79;100.00;99889.69;6206143;23;20009;-87
2020/12/30 08:58:58;;;;;;;6.70;2.97;;;5.10;99.90;;;4.73;100.00;99892.13;6196957;23;20095;-88
2020/12/30 09:01:30;;;;;;;7.90;2.65;;;5.40;99.90;;;4.64;100.00;99892.38;6196834;23;20005;-89
2020/12/30 09:04:12;;;;;;;12.68;2.70;;;5.00;99.90;;;4.63;100.00;99886.13;6197329;23;20008;-87
2020/12/30 09:06:39;;;;;;;4.78;2.05;;;5.10;99.90;;;4.59;100.00;99889.41;6222378;23;20000;-87
2020/12/30 09:09:14;;;;;;;3.78;1.60;;;5.10;99.90;;;5.07;100.00;99890.69;6197089;23;20005;-87
2020/12/30 09:11:53;;;;;;;5.70;1.75;;;5.10;99.90;;;6.01;100.00;99897.75;6199058;23;20013;-89
2020/12/30 09:14:38;;;;;;;4.47;2.20;;;5.90;99.90;;;7.18;100.00;99898.72;6201011;23;20004;-89
2020/12/30 09:17:13;;;;;;;2.67;1.38;;;6.20;99.90;;;8.28;100.00;99892.91;6222176;23;20077;-88
2020/12/30 09:19:41;;;;;;;5.13;1.92;;;7.30;99.90;;;8.88;96.10;99903.72;6173844;23;20017;-88
2020/12/30 09:22:13;;;;;;;3.92;1.40;;;7.60;99.90;;;9.19;91.11;99908.41;6199147;23;20009;-87
2020/12/30 09:24:42;;;;;;;3.63;1.52;;;8.20;99.90;;;9.00;90.75;99905.56;6202082;23;20418;-88
2020/12/30 09:27:16;;;;;;;2.75;1.27;;;8.20;99.90;;;8.62;92.52;99915.44;6223599;23;20008;-86
2020/12/30 09:29:42;;;;;;;5.75;1.30;;;8.50;99.90;;;8.76;92.79;99913.56;6201551;23;20066;-87
2020/12/30 09:32:22;;;;;;;5.03;1.33;;;8.20;99.90;;;8.43;92.71;99919.00;6174884;23;20095;-87
2020/12/30 09:35:02;;;;;;;8.05;1.00;;;8.20;99.90;;;8.00;93.15;99922.09;6225305;23;20026;-89
2020/12/30 09:37:28;;;;;;;1.63;0.77;;;7.90;99.90;;;7.91;94.32;99934.16;6201927;23;20060;-89
2020/12/30 09:40:13;;;;;;;1.52;0.63;;;7.70;99.90;;;7.74;96.04;99931.00;6224760;23;20007;-88
2020/12/30 09:42:40;;;;;;;;;;;7.60;99.90;;;8.76;96.12;99932.53;6199577;23;20074;-88
2020/12/30 09:45:10;;;;;;;3.45;0.40;;;8.00;99.90;;;10.32;91.02;99923.88;6229329;23;19951;-89
2020/12/30 09:47:37;;;;;;;1.65;0.60;;;8.70;99.90;;;11.50;84.64;99934.63;6228249;23;20009;-88
2020/12/30 09:50:09;;;;;;;3.30;0.63;;;9.70;99.90;;;11.97;84.67;99933.78;6198421;23;20015;-87
2020/12/30 09:52:38;;;;;;;5.18;0.90;;;10.40;99.90;;;11.66;81.56;99931.25;6203495;23;20005;-88
2020/12/30 09:55:06;;;;;;;7.00;0.60;;;10.60;99.90;;;11.09;83.66;99938.88;6211703;23;19996;-89
2020/12/30 09:57:37;;;;;;;2.78;0.50;;;10.50;99.90;;;10.33;85.09;99936.44;6195388;22;19997;-87
2020/12/30 10:00:09;;;;;;;3.58;0.50;;;10.20;99.90;;;9.45;86.98;99935.47;6220527;22;19997;-90
2020/12/30 10:02:36;;;;;;;2.63;0.68;;;9.70;99.90;;;8.89;89.32;99927.94;6213837;23;20028;-91
2020/12/30 10:05:02;;;;;;;5.40;0.77;;;9.30;99.90;;;8.58;91.35;99928.59;6182608;23;20013;-91
2020/12/30 10:07:28;;;;;;;4.53;0.82;;;8.80;99.90;;;8.20;92.35;99941.91;6181966;23;20016;-91
2020/12/30 10:09:56;;;;;;;2.63;0.60;;;8.60;99.90;;;7.91;93.67;99939.56;6204090;23;20009;-91
2020/12/30 10:12:23;;;;;;;3.05;1.30;;;8.30;99.90;;;7.59;94.65;99936.56;6204650;23;20008;-90
2020/12/30 10:14:49;;;;;;;1.23;0.38;;;8.10;99.90;;;7.38;95.38;99938.56;6181568;23;20012;-92
2020/12/30 10:17:15;;;;;;;2.53;0.45;;;7.50;99.90;;;7.14;96.21;99939.91;6203612;23;20004;-90
2020/12/30 10:19:42;;;;;;;2.78;0.57;;;7.60;99.90;;;7.06;96.44;99942.78;6179109;23;20012;-91
2020/12/30 10:22:11;;;;;;;4.55;0.85;;;7.30;99.90;;;6.99;96.09;99947.34;6156307;23;20009;-92
2020/12/30 10:24:44;;;;;;;2.60;0.70;;;7.30;99.90;;;6.89;96.06;99951.22;6206361;23;20004;-91
2020/12/30 10:27:14;;;;;;;4.30;0.73;;;7.40;99.90;;;6.86;95.78;99945.41;6207766;23;20111;-90
2020/12/30 10:29:41;;;;;;;1.30;0.50;;;7.20;99.90;;;6.74;96.60;99946.97;6206299;23;20027;-92
2020/12/30 10:32:07;;;;;;;1.00;0.43;;;7.00;99.90;;;6.57;96.86;99947.25;6161599;23;20016;-91
2020/12/30 10:34:35;;;;;;;1.15;0.40;;;6.90;99.90;;;6.63;96.70;99950.22;6205280;23;20005;-91
2020/12/30 10:37:06;;;;;;;3.83;1.00;;;6.90;99.90;;;6.71;96.50;99948.19;6230688;23;20053;-90
2020/12/30 10:39:33;;;;;;;0.57;0.35;;;6.90;99.90;;;6.66;96.93;99944.44;6205840;23;20029;-91